Santa Isabel, PR (00757)

5:46 PM AST on August 29, 2015 (GMT -0400)
Bananera Costa Sur Inc. | | Change Station
CLOSE
Current Station
Personal Weather Station
Location: Santa Isabel,
Elevation: 56 ft
Nearby Weather Stations

Elev 56 ft 17.98 °N, 66.37 °W | Updated 14 seconds ago

Partly Cloudy
Partly Cloudy
86.4 °F
Feels Like 95 °F
N
8.2
Wind Variable Wind from NW
Gusts 10.0 mph

Today
High -- | Low -- °F
--% Chance of Precip.
Yesterday
High -- | Low -- °F
Precip. -- in
6:10 AM 6:42 PM
Full, 100% visible
Pressure 29.92 in
Visibility 10.0 miles
Clouds Few 3000 ft
Heat Index 95 °F
Dew Point 74 °F
Humidity 68%
Rainfall 0.00 in
Snow Depth Not available.
UV 8 out of 12
Pollen Not available.
Air Quality Not available.
Flu Activity Not available.
METAR TJPS 291850Z 12010G15KT 10SM FEW030 33/24 A2992
Pressure 29.92 in
Visibility 10.0 miles
Clouds Few 3000 ft
Heat Index 95 °F
Dew Point 74 °F
Humidity 68%
Rainfall 0.00 in
Snow Depth Not available.
UV 8 out of 12
Pollen Not available.
Air Quality Not available.
Flu Activity Not available.
METAR TJPS 291850Z 12010G15KT 10SM FEW030 33/24 A2992

10-Day Weather Forecast

×

Almanac

Astronomy

Aug. 29, 2015 Rise Set
Actual Time
Civil Twilight
Nautical Twilight
Astronomical Twilight
Moon
Length of Visible Light
Length of Day
Tomorrow will be .
, % of the Moon is Illuminated

Today's Extremes

State Highs State Lows

Community

WunderPhotos

Upload Photos

1,850,795 photos uploaded!

WunderBlogs® & News

Nearby

Air Quality

  Air Quality AQ Index Pollutant
Not available.

Snow Depth

Station Depth Elevation

Earthquake Activity

City Distance Mag. Time & Date
Minimum magnitude displayed is 2.5.

Coastal Water Temperatures

Place Temperature

Stations

Nearby Weather Stations

Station Location Temp. Windchill Dew Point Humidity Wind Precip. Elev Updated Type